CSN3813 ZGSZ-ZSAM
Flight info
| Callsign | CSN3813 |
|---|---|
| Flight time | 0h 50m |
| Altitude | 22600 |
| Route | OVGOT R200 BEBEM A470 TEBON |
| Aircraft | B737/M-SDE1FGHILORVWXY/L |
Departure
| Time | 2026-04-25 15:43 |
|---|---|
| Airport | Shenzhen Bao'an International Airport (ZGSZ) |
Arrival
| Time | 2026-04-25 16:33 |
|---|---|
| Airport | Xiamen Gaoqi International Airport (ZSAM) |
| Time | Latitude | Longitude | Altitude | Speed | Heading |
|---|---|---|---|---|---|
| 2026-04-25 15:20 | 22.63442 | 113.80661 | 14 ft | 0 kts | 153° |
| 2026-04-25 15:31 | 22.63444 | 113.80660 | 14 ft | 1 kts | 153° |
| 2026-04-25 15:31 | 22.63460 | 113.80651 | 16 ft | 3 kts | 153° |
| 2026-04-25 15:32 | 22.63477 | 113.80642 | 16 ft | 2 kts | 153° |
| 2026-04-25 15:32 | 22.63495 | 113.80635 | 14 ft | 3 kts | 181° |
| 2026-04-25 15:32 | 22.63511 | 113.80641 | 15 ft | 3 kts | 231° |
| 2026-04-25 15:33 | 22.63526 | 113.80669 | 14 ft | 0 kts | 243° |
| 2026-04-25 15:35 | 22.63525 | 113.80667 | 14 ft | 1 kts | 243° |
| 2026-04-25 15:35 | 22.63515 | 113.80646 | 16 ft | 6 kts | 245° |
| 2026-04-25 15:36 | 22.63576 | 113.80566 | 14 ft | 8 kts | 332° |
| 2026-04-25 15:36 | 22.63626 | 113.80538 | 14 ft | 8 kts | 333° |
| 2026-04-25 15:36 | 22.63675 | 113.80511 | 14 ft | 8 kts | 333° |
| 2026-04-25 15:37 | 22.63724 | 113.80484 | 14 ft | 8 kts | 333° |
| 2026-04-25 15:37 | 22.63782 | 113.80459 | 14 ft | 9 kts | 355° |
| 2026-04-25 15:37 | 22.63828 | 113.80505 | 17 ft | 10 kts | 64° |
| 2026-04-25 15:37 | 22.63861 | 113.80576 | 14 ft | 11 kts | 63° |
| 2026-04-25 15:38 | 22.63899 | 113.80657 | 14 ft | 13 kts | 63° |
| 2026-04-25 15:38 | 22.63940 | 113.80746 | 14 ft | 14 kts | 63° |
| 2026-04-25 15:38 | 22.64011 | 113.80799 | 15 ft | 14 kts | 345° |
| 2026-04-25 15:38 | 22.64098 | 113.80751 | 14 ft | 15 kts | 332° |
| 2026-04-25 15:39 | 22.64191 | 113.80699 | 14 ft | 15 kts | 334° |
| 2026-04-25 15:39 | 22.64288 | 113.80647 | 14 ft | 16 kts | 333° |
| 2026-04-25 15:39 | 22.64389 | 113.80591 | 14 ft | 17 kts | 333° |
| 2026-04-25 15:39 | 22.64497 | 113.80532 | 14 ft | 18 kts | 333° |
| 2026-04-25 15:40 | 22.64573 | 113.80490 | 14 ft | 19 kts | 333° |
| 2026-04-25 15:40 | 22.64651 | 113.80447 | 14 ft | 19 kts | 333° |
| 2026-04-25 15:40 | 22.64856 | 113.80334 | 14 ft | 21 kts | 333° |
| 2026-04-25 15:40 | 22.64985 | 113.80263 | 16 ft | 21 kts | 333° |
| 2026-04-25 15:41 | 22.65097 | 113.80202 | 14 ft | 17 kts | 333° |
| 2026-04-25 15:41 | 22.65186 | 113.80166 | 14 ft | 13 kts | 9° |
| 2026-04-25 15:41 | 22.65237 | 113.80242 | 14 ft | 13 kts | 63° |
| 2026-04-25 15:41 | 22.65251 | 113.80329 | 14 ft | 12 kts | 123° |
| 2026-04-25 15:42 | 22.65222 | 113.80350 | 14 ft | 0 kts | 153° |
| 2026-04-25 15:42 | 22.65149 | 113.80391 | 15 ft | 39 kts | 153° |
| 2026-04-25 15:42 | 22.64668 | 113.80657 | 14 ft | 114 kts | 152° |
| 2026-04-25 15:43 | 22.63785 | 113.81150 | 98 ft | 164 kts | 152° |
| 2026-04-25 15:43 | 22.62756 | 113.81723 | 802 ft | 167 kts | 152° |
| 2026-04-25 15:43 | 22.61731 | 113.82286 | 1663 ft | 163 kts | 153° |
| 2026-04-25 15:43 | 22.60726 | 113.82832 | 2558 ft | 158 kts | 152° |
| 2026-04-25 15:44 | 22.59727 | 113.83369 | 3327 ft | 162 kts | 152° |
| 2026-04-25 15:44 | 22.58653 | 113.83949 | 3768 ft | 190 kts | 153° |
| 2026-04-25 15:44 | 22.57377 | 113.84641 | 4048 ft | 220 kts | 153° |
| 2026-04-25 15:44 | 22.55928 | 113.85428 | 4390 ft | 242 kts | 153° |
| 2026-04-25 15:45 | 22.54397 | 113.86259 | 5050 ft | 249 kts | 154° |
| 2026-04-25 15:45 | 22.52834 | 113.87108 | 5855 ft | 254 kts | 153° |
| 2026-04-25 15:45 | 22.51383 | 113.88202 | 6749 ft | 258 kts | 130° |
| 2026-04-25 15:45 | 22.51038 | 113.88706 | 7038 ft | 258 kts | 120° |
| 2026-04-25 15:46 | 22.50662 | 113.91887 | 8474 ft | 265 kts | 72° |
| 2026-04-25 15:46 | 22.51367 | 113.93701 | 9356 ft | 267 kts | 62° |
| 2026-04-25 15:46 | 22.52247 | 113.95492 | 10205 ft | 272 kts | 60° |
| 2026-04-25 15:46 | 22.53148 | 113.97311 | 10995 ft | 276 kts | 60° |
| 2026-04-25 15:47 | 22.54048 | 113.99160 | 11813 ft | 279 kts | 59° |
| 2026-04-25 15:47 | 22.55150 | 114.00888 | 12580 ft | 280 kts | 38° |
| 2026-04-25 15:47 | 22.56827 | 114.01943 | 13191 ft | 287 kts | 14° |
| 2026-04-25 15:47 | 22.58876 | 114.02286 | 13415 ft | 310 kts | 3° |
| 2026-04-25 15:48 | 22.61088 | 114.02479 | 13606 ft | 335 kts | 2° |
| 2026-04-25 15:48 | 22.63480 | 114.02696 | 13937 ft | 352 kts | 3° |
| 2026-04-25 15:48 | 22.65953 | 114.02986 | 14501 ft | 361 kts | 9° |
| 2026-04-25 15:48 | 22.68315 | 114.04012 | 15170 ft | 372 kts | 30° |
| 2026-04-25 15:49 | 22.70229 | 114.05884 | 15865 ft | 383 kts | 50° |
| 2026-04-25 15:49 | 22.71492 | 114.08458 | 16544 ft | 395 kts | 71° |
| 2026-04-25 15:49 | 22.71995 | 114.11423 | 17234 ft | 403 kts | 81° |
| 2026-04-25 15:49 | 22.72307 | 114.14461 | 17876 ft | 409 kts | 82° |
| 2026-04-25 15:50 | 22.72489 | 114.16506 | 18285 ft | 413 kts | 83° |
| 2026-04-25 15:50 | 22.72856 | 114.20694 | 19044 ft | 420 kts | 82° |
| 2026-04-25 15:50 | 22.73149 | 114.23856 | 19639 ft | 423 kts | 82° |
| 2026-04-25 15:50 | 22.73457 | 114.27007 | 20220 ft | 427 kts | 82° |
| 2026-04-25 15:51 | 22.73782 | 114.30230 | 20778 ft | 431 kts | 82° |
| 2026-04-25 15:51 | 22.73894 | 114.31324 | 20967 ft | 433 kts | 82° |
| 2026-04-25 15:51 | 22.74453 | 114.36747 | 21900 ft | 438 kts | 82° |
| 2026-04-25 15:51 | 22.74790 | 114.40019 | 22507 ft | 436 kts | 82° |
| 2026-04-25 15:52 | 22.75125 | 114.43284 | 22655 ft | 438 kts | 82° |
| 2026-04-25 15:52 | 22.75465 | 114.46599 | 22655 ft | 446 kts | 82° |
| 2026-04-25 15:52 | 22.75806 | 114.49939 | 22653 ft | 444 kts | 82° |
| 2026-04-25 15:52 | 22.76144 | 114.53265 | 22647 ft | 443 kts | 82° |
| 2026-04-25 15:53 | 22.76481 | 114.56535 | 22656 ft | 442 kts | 82° |
| 2026-04-25 15:53 | 22.76827 | 114.59852 | 22649 ft | 442 kts | 82° |
| 2026-04-25 15:53 | 22.77174 | 114.63171 | 22656 ft | 442 kts | 82° |
| 2026-04-25 15:53 | 22.77519 | 114.66481 | 22658 ft | 442 kts | 82° |
| 2026-04-25 15:54 | 22.77864 | 114.69803 | 22653 ft | 443 kts | 82° |
| 2026-04-25 15:54 | 22.78209 | 114.73136 | 22660 ft | 444 kts | 82° |
| 2026-04-25 15:54 | 22.78436 | 114.75337 | 22657 ft | 444 kts | 82° |
| 2026-04-25 15:54 | 22.78833 | 114.79108 | 22653 ft | 445 kts | 82° |
| 2026-04-25 15:55 | 22.79188 | 114.82446 | 22655 ft | 446 kts | 82° |
| 2026-04-25 15:55 | 22.79547 | 114.85794 | 22662 ft | 446 kts | 82° |
| 2026-04-25 15:55 | 22.79783 | 114.88008 | 22659 ft | 446 kts | 82° |
| 2026-04-25 15:55 | 22.80261 | 114.92497 | 22654 ft | 447 kts | 82° |
| 2026-04-25 15:56 | 22.80611 | 114.95796 | 22659 ft | 447 kts | 82° |
| 2026-04-25 15:56 | 22.80965 | 114.99146 | 22657 ft | 447 kts | 82° |
| 2026-04-25 15:56 | 22.81318 | 115.02495 | 22665 ft | 447 kts | 82° |
| 2026-04-25 15:56 | 22.81670 | 115.05851 | 22656 ft | 447 kts | 82° |
| 2026-04-25 15:57 | 22.81903 | 115.08065 | 22658 ft | 447 kts | 82° |
| 2026-04-25 15:57 | 22.82369 | 115.12516 | 22661 ft | 447 kts | 82° |
| 2026-04-25 15:57 | 22.82605 | 115.14780 | 22664 ft | 447 kts | 82° |
| 2026-04-25 15:57 | 22.82950 | 115.18083 | 22660 ft | 446 kts | 82° |
| 2026-04-25 15:58 | 22.83298 | 115.21429 | 22664 ft | 446 kts | 82° |
| 2026-04-25 15:58 | 22.83647 | 115.24788 | 22661 ft | 446 kts | 82° |
| 2026-04-25 15:58 | 22.83994 | 115.28133 | 22658 ft | 446 kts | 82° |
| 2026-04-25 15:58 | 22.84342 | 115.31494 | 22664 ft | 446 kts | 82° |
| 2026-04-25 15:59 | 22.84684 | 115.34807 | 22659 ft | 446 kts | 82° |
| 2026-04-25 15:59 | 22.85030 | 115.38164 | 22661 ft | 447 kts | 82° |
| 2026-04-25 15:59 | 22.85375 | 115.41520 | 22657 ft | 447 kts | 82° |
| 2026-04-25 15:59 | 22.85719 | 115.44868 | 22658 ft | 447 kts | 82° |
| 2026-04-25 16:00 | 22.86062 | 115.48226 | 22659 ft | 447 kts | 82° |
| 2026-04-25 16:00 | 22.86291 | 115.50459 | 22661 ft | 447 kts | 82° |
| 2026-04-25 16:00 | 22.86744 | 115.54899 | 22662 ft | 448 kts | 82° |
| 2026-04-25 16:00 | 22.87086 | 115.58264 | 22661 ft | 448 kts | 82° |
| 2026-04-25 16:01 | 22.87429 | 115.61638 | 22664 ft | 448 kts | 82° |
| 2026-04-25 16:01 | 22.87769 | 115.65001 | 22658 ft | 448 kts | 82° |
| 2026-04-25 16:01 | 22.88105 | 115.68320 | 22662 ft | 448 kts | 82° |
| 2026-04-25 16:01 | 22.88445 | 115.71694 | 22671 ft | 449 kts | 82° |
| 2026-04-25 16:02 | 22.88785 | 115.75064 | 22668 ft | 449 kts | 82° |
| 2026-04-25 16:02 | 22.89123 | 115.78433 | 22683 ft | 449 kts | 82° |
| 2026-04-25 16:02 | 22.89462 | 115.81814 | 22675 ft | 450 kts | 82° |
| 2026-04-25 16:02 | 22.89796 | 115.85145 | 22667 ft | 450 kts | 82° |
| 2026-04-25 16:03 | 22.90133 | 115.88523 | 22669 ft | 450 kts | 82° |
| 2026-04-25 16:03 | 22.90471 | 115.91906 | 22661 ft | 450 kts | 82° |
| 2026-04-25 16:03 | 22.90810 | 115.95283 | 22662 ft | 450 kts | 82° |
| 2026-04-25 16:03 | 22.91148 | 115.98661 | 22668 ft | 450 kts | 82° |
| 2026-04-25 16:04 | 22.91485 | 116.02041 | 22666 ft | 450 kts | 82° |
| 2026-04-25 16:04 | 22.91828 | 116.05419 | 22660 ft | 450 kts | 82° |
| 2026-04-25 16:04 | 22.92180 | 116.08799 | 22663 ft | 451 kts | 82° |
| 2026-04-25 16:04 | 22.92535 | 116.12189 | 22665 ft | 451 kts | 82° |
| 2026-04-25 16:05 | 22.92888 | 116.15571 | 22663 ft | 451 kts | 82° |
| 2026-04-25 16:05 | 22.93235 | 116.18913 | 22662 ft | 451 kts | 82° |
| 2026-04-25 16:05 | 22.93934 | 116.25697 | 22664 ft | 452 kts | 82° |
| 2026-04-25 16:06 | 22.94282 | 116.29082 | 22664 ft | 452 kts | 83° |
| 2026-04-25 16:06 | 22.94724 | 116.32457 | 22643 ft | 451 kts | 74° |
| 2026-04-25 16:06 | 22.95868 | 116.35588 | 22675 ft | 446 kts | 57° |
| 2026-04-25 16:06 | 22.97670 | 116.38298 | 22656 ft | 440 kts | 42° |
| 2026-04-25 16:07 | 22.99985 | 116.40419 | 22681 ft | 434 kts | 32° |
| 2026-04-25 16:07 | 23.01590 | 116.41719 | 22671 ft | 435 kts | 32° |
| 2026-04-25 16:07 | 23.04822 | 116.44306 | 22668 ft | 435 kts | 32° |
| 2026-04-25 16:07 | 23.07267 | 116.46275 | 22662 ft | 436 kts | 32° |
| 2026-04-25 16:08 | 23.09702 | 116.48256 | 22664 ft | 436 kts | 32° |
| 2026-04-25 16:08 | 23.12123 | 116.50242 | 22661 ft | 437 kts | 32° |
| 2026-04-25 16:08 | 23.14468 | 116.52177 | 22670 ft | 436 kts | 32° |
| 2026-04-25 16:08 | 23.16885 | 116.54178 | 22666 ft | 437 kts | 32° |
| 2026-04-25 16:09 | 23.19300 | 116.56180 | 22662 ft | 437 kts | 32° |
| 2026-04-25 16:09 | 23.21725 | 116.58191 | 22662 ft | 437 kts | 32° |
| 2026-04-25 16:09 | 23.24144 | 116.60198 | 22663 ft | 437 kts | 32° |
| 2026-04-25 16:09 | 23.26561 | 116.62203 | 22672 ft | 437 kts | 32° |
| 2026-04-25 16:10 | 23.28982 | 116.64212 | 22668 ft | 437 kts | 32° |
| 2026-04-25 16:10 | 23.31369 | 116.66195 | 22670 ft | 437 kts | 32° |
| 2026-04-25 16:10 | 23.33801 | 116.68215 | 22677 ft | 437 kts | 32° |
| 2026-04-25 16:10 | 23.36219 | 116.70225 | 22664 ft | 438 kts | 32° |
| 2026-04-25 16:11 | 23.38642 | 116.72239 | 22672 ft | 438 kts | 32° |
| 2026-04-25 16:11 | 23.41069 | 116.74258 | 22674 ft | 438 kts | 32° |
| 2026-04-25 16:11 | 23.43466 | 116.76261 | 22672 ft | 439 kts | 34° |
| 2026-04-25 16:11 | 23.45748 | 116.78502 | 22675 ft | 443 kts | 40° |
| 2026-04-25 16:12 | 23.47901 | 116.80913 | 22678 ft | 443 kts | 42° |
| 2026-04-25 16:12 | 23.50022 | 116.83367 | 22659 ft | 444 kts | 43° |
| 2026-04-25 16:12 | 23.52093 | 116.85776 | 22436 ft | 437 kts | 42° |
| 2026-04-25 16:12 | 23.53489 | 116.87394 | 22256 ft | 431 kts | 42° |
| 2026-04-25 16:13 | 23.56191 | 116.90501 | 21919 ft | 421 kts | 41° |
| 2026-04-25 16:13 | 23.58207 | 116.92801 | 21672 ft | 417 kts | 41° |
| 2026-04-25 16:13 | 23.60218 | 116.95085 | 21428 ft | 416 kts | 41° |
| 2026-04-25 16:13 | 23.62213 | 116.97348 | 21128 ft | 412 kts | 41° |
| 2026-04-25 16:14 | 23.64186 | 116.99588 | 20713 ft | 407 kts | 41° |
| 2026-04-25 16:14 | 23.66121 | 117.01787 | 20164 ft | 404 kts | 41° |
| 2026-04-25 16:14 | 23.68063 | 117.03993 | 19625 ft | 402 kts | 41° |
| 2026-04-25 16:14 | 23.69989 | 117.06184 | 19146 ft | 398 kts | 41° |
| 2026-04-25 16:15 | 23.71902 | 117.08362 | 18692 ft | 394 kts | 41° |
| 2026-04-25 16:15 | 23.73789 | 117.10511 | 18218 ft | 389 kts | 41° |
| 2026-04-25 16:15 | 23.75579 | 117.12549 | 17708 ft | 386 kts | 41° |
| 2026-04-25 16:15 | 23.77462 | 117.14617 | 17184 ft | 381 kts | 38° |
| 2026-04-25 16:16 | 23.79376 | 117.16533 | 16686 ft | 376 kts | 37° |
| 2026-04-25 16:16 | 23.81327 | 117.18414 | 16184 ft | 372 kts | 37° |
| 2026-04-25 16:16 | 23.83267 | 117.20270 | 15680 ft | 369 kts | 37° |
| 2026-04-25 16:16 | 23.85186 | 117.22113 | 15240 ft | 364 kts | 37° |
| 2026-04-25 16:17 | 23.87076 | 117.23938 | 14932 ft | 362 kts | 37° |
| 2026-04-25 16:17 | 23.88976 | 117.25781 | 14913 ft | 366 kts | 37° |
| 2026-04-25 16:17 | 23.90876 | 117.27631 | 14875 ft | 363 kts | 38° |
| 2026-04-25 16:17 | 23.92728 | 117.29440 | 14815 ft | 359 kts | 37° |
| 2026-04-25 16:18 | 23.94583 | 117.31251 | 14542 ft | 355 kts | 37° |
| 2026-04-25 16:18 | 23.95204 | 117.31858 | 14395 ft | 354 kts | 37° |
| 2026-04-25 16:18 | 23.98250 | 117.34842 | 13429 ft | 354 kts | 38° |
| 2026-04-25 16:18 | 24.00078 | 117.36634 | 12899 ft | 351 kts | 38° |
| 2026-04-25 16:19 | 24.01892 | 117.38412 | 12400 ft | 348 kts | 38° |
| 2026-04-25 16:19 | 24.03676 | 117.40162 | 11766 ft | 344 kts | 38° |
| 2026-04-25 16:19 | 24.05460 | 117.41910 | 11267 ft | 342 kts | 39° |
| 2026-04-25 16:20 | 24.08825 | 117.45216 | 11100 ft | 313 kts | 39° |
| 2026-04-25 16:20 | 24.10422 | 117.46784 | 10860 ft | 306 kts | 39° |
| 2026-04-25 16:20 | 24.13584 | 117.49884 | 10109 ft | 303 kts | 40° |
| 2026-04-25 16:21 | 24.15085 | 117.51513 | 9734 ft | 303 kts | 45° |
| 2026-04-25 16:21 | 24.16506 | 117.53210 | 9358 ft | 301 kts | 46° |
| 2026-04-25 16:21 | 24.17898 | 117.54908 | 9013 ft | 298 kts | 46° |
| 2026-04-25 16:21 | 24.19261 | 117.56569 | 8660 ft | 295 kts | 46° |
| 2026-04-25 16:22 | 24.20638 | 117.58240 | 8292 ft | 293 kts | 46° |
| 2026-04-25 16:22 | 24.22002 | 117.59888 | 7945 ft | 291 kts | 46° |
| 2026-04-25 16:22 | 24.23358 | 117.61521 | 7589 ft | 289 kts | 46° |
| 2026-04-25 16:22 | 24.24709 | 117.63145 | 7250 ft | 286 kts | 46° |
| 2026-04-25 16:23 | 24.26047 | 117.64752 | 6916 ft | 283 kts | 46° |
| 2026-04-25 16:23 | 24.27376 | 117.66346 | 6575 ft | 282 kts | 46° |
| 2026-04-25 16:23 | 24.28678 | 117.67909 | 6223 ft | 280 kts | 46° |
| 2026-04-25 16:23 | 24.29964 | 117.69454 | 6140 ft | 267 kts | 47° |
| 2026-04-25 16:24 | 24.31193 | 117.70930 | 6054 ft | 256 kts | 46° |
| 2026-04-25 16:24 | 24.32371 | 117.72346 | 5976 ft | 246 kts | 46° |
| 2026-04-25 16:24 | 24.33505 | 117.73708 | 5899 ft | 237 kts | 46° |
| 2026-04-25 16:24 | 24.34597 | 117.75021 | 5825 ft | 228 kts | 46° |
| 2026-04-25 16:25 | 24.35653 | 117.76288 | 5666 ft | 222 kts | 46° |
| 2026-04-25 16:25 | 24.36340 | 117.77114 | 5537 ft | 220 kts | 46° |
| 2026-04-25 16:25 | 24.37713 | 117.78764 | 5225 ft | 220 kts | 46° |
| 2026-04-25 16:25 | 24.38744 | 117.80003 | 5006 ft | 218 kts | 46° |
| 2026-04-25 16:26 | 24.39665 | 117.81333 | 4902 ft | 221 kts | 68° |
| 2026-04-25 16:26 | 24.39966 | 117.82982 | 4899 ft | 220 kts | 84° |
| 2026-04-25 16:26 | 24.40082 | 117.84623 | 4680 ft | 218 kts | 85° |
| 2026-04-25 16:26 | 24.40180 | 117.86189 | 4438 ft | 219 kts | 85° |
| 2026-04-25 16:27 | 24.40288 | 117.87817 | 4358 ft | 207 kts | 85° |
| 2026-04-25 16:27 | 24.40396 | 117.89353 | 4263 ft | 195 kts | 84° |
| 2026-04-25 16:27 | 24.40500 | 117.90787 | 4161 ft | 182 kts | 84° |
| 2026-04-25 16:27 | 24.40600 | 117.92150 | 3925 ft | 177 kts | 84° |
| 2026-04-25 16:28 | 24.40752 | 117.93479 | 3632 ft | 174 kts | 69° |
| 2026-04-25 16:28 | 24.41455 | 117.94515 | 3359 ft | 170 kts | 47° |
| 2026-04-25 16:28 | 24.42187 | 117.95533 | 3065 ft | 168 kts | 53° |
| 2026-04-25 16:28 | 24.42898 | 117.96576 | 3038 ft | 172 kts | 53° |
| 2026-04-25 16:29 | 24.43625 | 117.97615 | 2986 ft | 169 kts | 52° |
| 2026-04-25 16:29 | 24.44333 | 117.98616 | 2930 ft | 169 kts | 52° |
| 2026-04-25 16:29 | 24.45063 | 117.99641 | 2730 ft | 169 kts | 53° |
| 2026-04-25 16:29 | 24.45782 | 118.00655 | 2513 ft | 167 kts | 52° |
| 2026-04-25 16:30 | 24.46489 | 118.01645 | 2303 ft | 159 kts | 52° |
| 2026-04-25 16:30 | 24.47135 | 118.02553 | 2142 ft | 144 kts | 52° |
| 2026-04-25 16:30 | 24.47734 | 118.03393 | 1922 ft | 133 kts | 53° |
| 2026-04-25 16:30 | 24.48296 | 118.04182 | 1734 ft | 130 kts | 52° |
| 2026-04-25 16:31 | 24.48850 | 118.04962 | 1554 ft | 131 kts | 52° |
| 2026-04-25 16:31 | 24.49416 | 118.05754 | 1400 ft | 132 kts | 52° |
| 2026-04-25 16:31 | 24.49983 | 118.06548 | 1219 ft | 132 kts | 52° |
| 2026-04-25 16:31 | 24.50549 | 118.07344 | 1033 ft | 131 kts | 52° |
| 2026-04-25 16:32 | 24.51112 | 118.08135 | 890 ft | 135 kts | 52° |
| 2026-04-25 16:32 | 24.51694 | 118.08952 | 696 ft | 135 kts | 53° |
| 2026-04-25 16:32 | 24.52274 | 118.09770 | 490 ft | 135 kts | 52° |
| 2026-04-25 16:32 | 24.52858 | 118.10589 | 298 ft | 137 kts | 52° |
| 2026-04-25 16:33 | 24.53436 | 118.11399 | 139 ft | 136 kts | 52° |
| 2026-04-25 16:33 | 24.53997 | 118.12186 | 57 ft | 118 kts | 51° |
| 2026-04-25 16:33 | 24.54410 | 118.12764 | 51 ft | 73 kts | 52° |
| 2026-04-25 16:33 | 24.54597 | 118.13027 | 48 ft | 35 kts | 52° |
| 2026-04-25 16:34 | 24.54698 | 118.13235 | 50 ft | 28 kts | 77° |
| 2026-04-25 16:34 | 24.54715 | 118.13368 | 49 ft | 11 kts | 97° |
| 2026-04-25 16:34 | 24.54670 | 118.13402 | 49 ft | 8 kts | 187° |
| 2026-04-25 16:34 | 24.54629 | 118.13359 | 50 ft | 8 kts | 231° |
| 2026-04-25 16:35 | 24.54594 | 118.13310 | 49 ft | 8 kts | 232° |
| 2026-04-25 16:35 | 24.54560 | 118.13263 | 50 ft | 8 kts | 232° |
| 2026-04-25 16:35 | 24.54528 | 118.13217 | 49 ft | 7 kts | 231° |
| 2026-04-25 16:35 | 24.54497 | 118.13174 | 49 ft | 7 kts | 231° |
| 2026-04-25 16:36 | 24.54455 | 118.13154 | 51 ft | 7 kts | 165° |
| 2026-04-25 16:36 | 24.54449 | 118.13157 | 51 ft | 0 kts | 152° |
| 2026-04-25 16:37 | 24.54448 | 118.13157 | 51 ft | 0 kts | 152° |
| 2026-04-25 16:37 | 24.54439 | 118.13165 | 51 ft | 3 kts | 143° |
| 2026-04-25 16:37 | 24.54409 | 118.13191 | 51 ft | 8 kts | 142° |
| 2026-04-25 16:37 | 24.54351 | 118.13216 | 51 ft | 11 kts | 197° |
| 2026-04-25 16:38 | 24.54294 | 118.13150 | 52 ft | 13 kts | 231° |
| 2026-04-25 16:38 | 24.54240 | 118.13074 | 50 ft | 12 kts | 231° |
| 2026-04-25 16:38 | 24.54189 | 118.13039 | 52 ft | 6 kts | 170° |
| 2026-04-25 16:38 | 24.54157 | 118.13062 | 50 ft | 3 kts | 140° |
| 2026-04-25 16:39 | 24.54143 | 118.13075 | 53 ft | 1 kts | 140° |
| 2026-04-25 16:39 | 24.54142 | 118.13076 | 53 ft | 0 kts | 140° |